sensor_id;sensor_type;location;lat;lon;timestamp;P1;durP1;ratioP1;P2;durP2;ratioP2
12776;SDS011;6452;41.572;23.732;2022-12-07T00:01:18;22.60;;;16.17;;
12776;SDS011;6452;41.572;23.732;2022-12-07T00:04:04;24.95;;;17.20;;
12776;SDS011;6452;41.572;23.732;2022-12-07T00:06:38;23.17;;;16.30;;
12776;SDS011;6452;41.572;23.732;2022-12-07T00:09:06;27.67;;;16.88;;
12776;SDS011;6452;41.572;23.732;2022-12-07T00:11:35;21.67;;;16.30;;
12776;SDS011;6452;41.572;23.732;2022-12-07T00:14:03;22.52;;;17.40;;
12776;SDS011;6452;41.572;23.732;2022-12-07T00:16:33;27.25;;;18.60;;
12776;SDS011;6452;41.572;23.732;2022-12-07T00:18:59;28.27;;;20.02;;
12776;SDS011;6452;41.572;23.732;2022-12-07T00:21:30;39.08;;;32.22;;
12776;SDS011;6452;41.572;23.732;2022-12-07T00:23:58;54.85;;;41.85;;
12776;SDS011;6452;41.572;23.732;2022-12-07T00:26:26;57.30;;;46.25;;
12776;SDS011;6452;41.572;23.732;2022-12-07T00:28:56;52.28;;;40.88;;
12776;SDS011;6452;41.572;23.732;2022-12-07T00:31:24;63.45;;;51.08;;
12776;SDS011;6452;41.572;23.732;2022-12-07T00:33:52;48.38;;;42.20;;
12776;SDS011;6452;41.572;23.732;2022-12-07T00:36:20;43.05;;;31.20;;
12776;SDS011;6452;41.572;23.732;2022-12-07T00:38:47;36.75;;;27.40;;
12776;SDS011;6452;41.572;23.732;2022-12-07T00:41:14;36.95;;;29.67;;
12776;SDS011;6452;41.572;23.732;2022-12-07T00:43:43;30.88;;;25.02;;
12776;SDS011;6452;41.572;23.732;2022-12-07T00:46:13;32.05;;;21.88;;
12776;SDS011;6452;41.572;23.732;2022-12-07T00:48:39;32.83;;;22.55;;
12776;SDS011;6452;41.572;23.732;2022-12-07T00:51:06;31.55;;;22.63;;
12776;SDS011;6452;41.572;23.732;2022-12-07T00:53:36;32.55;;;23.45;;
12776;SDS011;6452;41.572;23.732;2022-12-07T00:56:06;30.98;;;23.45;;
12776;SDS011;6452;41.572;23.732;2022-12-07T00:58:43;33.70;;;23.95;;
12776;SDS011;6452;41.572;23.732;2022-12-07T01:01:09;29.73;;;20.80;;
12776;SDS011;6452;41.572;23.732;2022-12-07T01:03:37;30.73;;;21.60;;
12776;SDS011;6452;41.572;23.732;2022-12-07T01:06:04;29.65;;;20.83;;
12776;SDS011;6452;41.572;23.732;2022-12-07T01:08:31;30.83;;;21.45;;
12776;SDS011;6452;41.572;23.732;2022-12-07T01:11:01;40.75;;;28.88;;
12776;SDS011;6452;41.572;23.732;2022-12-07T01:13:31;35.45;;;26.35;;
12776;SDS011;6452;41.572;23.732;2022-12-07T01:15:59;38.95;;;25.45;;
12776;SDS011;6452;41.572;23.732;2022-12-07T01:18:27;34.00;;;25.40;;
12776;SDS011;6452;41.572;23.732;2022-12-07T01:20:59;36.70;;;24.10;;
12776;SDS011;6452;41.572;23.732;2022-12-07T01:23:28;35.45;;;26.63;;
12776;SDS011;6452;41.572;23.732;2022-12-07T01:25:58;42.53;;;32.15;;
12776;SDS011;6452;41.572;23.732;2022-12-07T01:28:25;42.28;;;32.28;;
12776;SDS011;6452;41.572;23.732;2022-12-07T01:31:02;38.75;;;32.05;;
12776;SDS011;6452;41.572;23.732;2022-12-07T01:33:46;43.58;;;33.33;;
12776;SDS011;6452;41.572;23.732;2022-12-07T01:38:58;26.08;;;21.48;;
12776;SDS011;6452;41.572;23.732;2022-12-07T01:41:26;27.42;;;20.20;;
12776;SDS011;6452;41.572;23.732;2022-12-07T01:52:40;17.35;;;13.40;;
12776;SDS011;6452;41.572;23.732;2022-12-07T01:54:51;18.00;;;12.70;;
12776;SDS011;6452;41.572;23.732;2022-12-07T01:57:20;14.80;;;12.40;;
12776;SDS011;6452;41.572;23.732;2022-12-07T01:59:48;14.48;;;12.40;;
12776;SDS011;6452;41.572;23.732;2022-12-07T02:02:20;15.20;;;12.57;;
12776;SDS011;6452;41.572;23.732;2022-12-07T02:05:06;14.93;;;12.07;;
12776;SDS011;6452;41.572;23.732;2022-12-07T02:07:34;21.35;;;12.80;;
12776;SDS011;6452;41.572;23.732;2022-12-07T02:10:17;15.10;;;12.18;;
12776;SDS011;6452;41.572;23.732;2022-12-07T02:12:56;14.32;;;11.98;;
12776;SDS011;6452;41.572;23.732;2022-12-07T02:30:22;26.42;;;17.00;;
12776;SDS011;6452;41.572;23.732;2022-12-07T02:33:00;26.73;;;17.45;;
12776;SDS011;6452;41.572;23.732;2022-12-07T02:35:57;23.52;;;16.38;;
12776;SDS011;6452;41.572;23.732;2022-12-07T02:38:53;22.20;;;16.42;;
12776;SDS011;6452;41.572;23.732;2022-12-07T02:41:28;22.92;;;18.00;;
12776;SDS011;6452;41.572;23.732;2022-12-07T02:44:04;22.30;;;17.00;;
12776;SDS011;6452;41.572;23.732;2022-12-07T02:46:56;21.83;;;17.25;;
12776;SDS011;6452;41.572;23.732;2022-12-07T02:49:43;25.20;;;18.20;;
12776;SDS011;6452;41.572;23.732;2022-12-07T02:52:32;24.38;;;17.42;;
12776;SDS011;6452;41.572;23.732;2022-12-07T02:55:19;25.38;;;17.83;;
12776;SDS011;6452;41.572;23.732;2022-12-07T02:58:13;22.42;;;17.95;;
12776;SDS011;6452;41.572;23.732;2022-12-07T03:03:57;25.00;;;18.05;;
12776;SDS011;6452;41.572;23.732;2022-12-07T03:06:46;25.27;;;18.27;;
12776;SDS011;6452;41.572;23.732;2022-12-07T03:18:25;24.63;;;15.48;;
12776;SDS011;6452;41.572;23.732;2022-12-07T03:20:55;16.17;;;13.93;;
12776;SDS011;6452;41.572;23.732;2022-12-07T03:23:27;18.90;;;12.55;;
12776;SDS011;6452;41.572;23.732;2022-12-07T03:25:58;18.20;;;11.60;;
12776;SDS011;6452;41.572;23.732;2022-12-07T03:28:27;15.75;;;11.50;;
12776;SDS011;6452;41.572;23.732;2022-12-07T03:31:03;14.65;;;11.23;;
12776;SDS011;6452;41.572;23.732;2022-12-07T03:33:41;21.60;;;13.90;;
12776;SDS011;6452;41.572;23.732;2022-12-07T03:36:32;17.75;;;13.50;;
12776;SDS011;6452;41.572;23.732;2022-12-07T03:39:41;19.80;;;13.25;;
12776;SDS011;6452;41.572;23.732;2022-12-07T03:42:15;17.75;;;14.02;;
12776;SDS011;6452;41.572;23.732;2022-12-07T03:44:42;17.13;;;14.65;;
12776;SDS011;6452;41.572;23.732;2022-12-07T03:47:29;18.42;;;15.13;;
12776;SDS011;6452;41.572;23.732;2022-12-07T03:50:15;23.17;;;18.30;;
12776;SDS011;6452;41.572;23.732;2022-12-07T03:53:09;23.02;;;17.45;;
12776;SDS011;6452;41.572;23.732;2022-12-07T03:55:41;21.25;;;17.40;;
12776;SDS011;6452;41.572;23.732;2022-12-07T03:58:11;21.98;;;16.63;;
12776;SDS011;6452;41.572;23.732;2022-12-07T04:00:41;18.90;;;13.60;;
12776;SDS011;6452;41.572;23.732;2022-12-07T04:03:08;17.60;;;13.25;;
12776;SDS011;6452;41.572;23.732;2022-12-07T04:05:35;23.23;;;14.02;;
12776;SDS011;6452;41.572;23.732;2022-12-07T04:08:02;17.20;;;13.32;;
12776;SDS011;6452;41.572;23.732;2022-12-07T04:10:28;17.92;;;14.18;;
12776;SDS011;6452;41.572;23.732;2022-12-07T04:12:58;19.48;;;13.27;;
12776;SDS011;6452;41.572;23.732;2022-12-07T04:15:25;19.25;;;14.15;;
12776;SDS011;6452;41.572;23.732;2022-12-07T04:17:51;16.15;;;13.13;;
12776;SDS011;6452;41.572;23.732;2022-12-07T04:20:18;19.45;;;13.23;;
12776;SDS011;6452;41.572;23.732;2022-12-07T04:22:45;17.95;;;13.77;;
12776;SDS011;6452;41.572;23.732;2022-12-07T04:25:11;21.20;;;14.98;;
12776;SDS011;6452;41.572;23.732;2022-12-07T04:27:38;19.45;;;14.70;;
12776;SDS011;6452;41.572;23.732;2022-12-07T04:30:05;27.17;;;14.93;;
12776;SDS011;6452;41.572;23.732;2022-12-07T04:32:34;15.00;;;13.13;;
12776;SDS011;6452;41.572;23.732;2022-12-07T04:35:00;17.00;;;13.90;;
12776;SDS011;6452;41.572;23.732;2022-12-07T04:37:27;19.63;;;14.27;;
12776;SDS011;6452;41.572;23.732;2022-12-07T04:39:54;17.23;;;14.02;;
12776;SDS011;6452;41.572;23.732;2022-12-07T04:42:24;20.08;;;14.48;;
12776;SDS011;6452;41.572;23.732;2022-12-07T04:44:51;18.73;;;14.38;;
12776;SDS011;6452;41.572;23.732;2022-12-07T04:47:17;20.50;;;15.60;;
12776;SDS011;6452;41.572;23.732;2022-12-07T04:49:44;16.58;;;14.73;;
12776;SDS011;6452;41.572;23.732;2022-12-07T04:52:10;22.90;;;16.40;;
12776;SDS011;6452;41.572;23.732;2022-12-07T04:54:37;27.10;;;17.50;;
12776;SDS011;6452;41.572;23.732;2022-12-07T04:57:03;37.63;;;24.55;;
12776;SDS011;6452;41.572;23.732;2022-12-07T04:59:30;35.90;;;23.67;;
12776;SDS011;6452;41.572;23.732;2022-12-07T05:01:57;32.90;;;22.02;;
12776;SDS011;6452;41.572;23.732;2022-12-07T05:04:23;30.23;;;22.42;;
12776;SDS011;6452;41.572;23.732;2022-12-07T05:06:50;28.92;;;21.05;;
12776;SDS011;6452;41.572;23.732;2022-12-07T05:09:17;36.42;;;25.83;;
12776;SDS011;6452;41.572;23.732;2022-12-07T05:11:44;31.35;;;23.15;;
12776;SDS011;6452;41.572;23.732;2022-12-07T05:14:19;29.60;;;19.20;;
12776;SDS011;6452;41.572;23.732;2022-12-07T05:16:47;26.33;;;20.73;;
12776;SDS011;6452;41.572;23.732;2022-12-07T05:19:18;27.70;;;19.60;;
12776;SDS011;6452;41.572;23.732;2022-12-07T05:21:45;21.55;;;18.90;;
12776;SDS011;6452;41.572;23.732;2022-12-07T05:24:12;27.80;;;20.95;;
12776;SDS011;6452;41.572;23.732;2022-12-07T05:26:38;24.90;;;18.77;;
12776;SDS011;6452;41.572;23.732;2022-12-07T05:29:05;24.80;;;19.85;;
12776;SDS011;6452;41.572;23.732;2022-12-07T05:31:31;28.55;;;19.23;;
12776;SDS011;6452;41.572;23.732;2022-12-07T05:33:58;28.73;;;21.67;;
12776;SDS011;6452;41.572;23.732;2022-12-07T05:36:24;35.25;;;22.33;;
12776;SDS011;6452;41.572;23.732;2022-12-07T05:38:54;40.45;;;25.23;;
12776;SDS011;6452;41.572;23.732;2022-12-07T05:41:20;38.72;;;24.92;;
12776;SDS011;6452;41.572;23.732;2022-12-07T05:44:04;38.67;;;26.90;;
12776;SDS011;6452;41.572;23.732;2022-12-07T05:46:31;32.42;;;24.77;;
12776;SDS011;6452;41.572;23.732;2022-12-07T05:48:58;36.45;;;25.55;;
12776;SDS011;6452;41.572;23.732;2022-12-07T05:51:25;33.67;;;24.60;;
12776;SDS011;6452;41.572;23.732;2022-12-07T05:53:51;39.90;;;27.60;;
12776;SDS011;6452;41.572;23.732;2022-12-07T05:56:18;27.92;;;21.98;;
12776;SDS011;6452;41.572;23.732;2022-12-07T05:58:44;39.75;;;24.30;;
12776;SDS011;6452;41.572;23.732;2022-12-07T06:01:29;32.47;;;23.17;;
12776;SDS011;6452;41.572;23.732;2022-12-07T06:03:55;38.25;;;24.60;;
12776;SDS011;6452;41.572;23.732;2022-12-07T06:06:25;37.92;;;23.55;;
12776;SDS011;6452;41.572;23.732;2022-12-07T06:08:52;30.48;;;24.05;;
12776;SDS011;6452;41.572;23.732;2022-12-07T06:11:18;34.13;;;26.95;;
12776;SDS011;6452;41.572;23.732;2022-12-07T06:14:07;35.88;;;26.08;;
12776;SDS011;6452;41.572;23.732;2022-12-07T06:16:34;35.00;;;27.90;;
12776;SDS011;6452;41.572;23.732;2022-12-07T06:19:00;63.80;;;47.45;;
12776;SDS011;6452;41.572;23.732;2022-12-07T06:21:26;45.95;;;32.58;;
12776;SDS011;6452;41.572;23.732;2022-12-07T06:23:56;56.90;;;34.53;;
12776;SDS011;6452;41.572;23.732;2022-12-07T06:26:23;40.53;;;28.83;;
12776;SDS011;6452;41.572;23.732;2022-12-07T06:28:53;35.47;;;26.10;;
12776;SDS011;6452;41.572;23.732;2022-12-07T06:31:23;58.28;;;39.60;;
12776;SDS011;6452;41.572;23.732;2022-12-07T06:34:00;64.63;;;40.10;;
12776;SDS011;6452;41.572;23.732;2022-12-07T06:36:27;36.83;;;27.23;;
12776;SDS011;6452;41.572;23.732;2022-12-07T06:38:53;36.88;;;25.95;;
12776;SDS011;6452;41.572;23.732;2022-12-07T06:41:21;29.27;;;19.77;;
12776;SDS011;6452;41.572;23.732;2022-12-07T06:43:48;29.30;;;19.10;;
12776;SDS011;6452;41.572;23.732;2022-12-07T06:46:19;28.10;;;18.30;;
12776;SDS011;6452;41.572;23.732;2022-12-07T06:48:45;30.90;;;19.88;;
12776;SDS011;6452;41.572;23.732;2022-12-07T06:51:16;32.63;;;23.33;;
12776;SDS011;6452;41.572;23.732;2022-12-07T06:53:42;40.35;;;21.00;;
12776;SDS011;6452;41.572;23.732;2022-12-07T06:56:09;32.55;;;23.90;;
12776;SDS011;6452;41.572;23.732;2022-12-07T06:58:35;32.90;;;23.92;;
12776;SDS011;6452;41.572;23.732;2022-12-07T07:01:08;33.50;;;16.15;;
12776;SDS011;6452;41.572;23.732;2022-12-07T07:03:42;26.98;;;16.25;;
12776;SDS011;6452;41.572;23.732;2022-12-07T07:06:10;29.63;;;18.17;;
12776;SDS011;6452;41.572;23.732;2022-12-07T07:08:38;28.70;;;17.45;;
12776;SDS011;6452;41.572;23.732;2022-12-07T07:11:06;33.00;;;20.15;;
12776;SDS011;6452;41.572;23.732;2022-12-07T07:13:33;38.38;;;21.10;;
12776;SDS011;6452;41.572;23.732;2022-12-07T07:15:59;44.20;;;21.88;;
12776;SDS011;6452;41.572;23.732;2022-12-07T07:18:26;32.97;;;21.52;;
12776;SDS011;6452;41.572;23.732;2022-12-07T07:20:52;32.22;;;20.88;;
12776;SDS011;6452;41.572;23.732;2022-12-07T07:23:19;34.72;;;21.95;;
12776;SDS011;6452;41.572;23.732;2022-12-07T07:25:51;31.70;;;21.52;;
12776;SDS011;6452;41.572;23.732;2022-12-07T07:28:18;35.22;;;24.10;;
12776;SDS011;6452;41.572;23.732;2022-12-07T07:30:48;31.60;;;22.10;;
12776;SDS011;6452;41.572;23.732;2022-12-07T07:33:14;38.45;;;22.52;;
12776;SDS011;6452;41.572;23.732;2022-12-07T07:35:40;27.00;;;19.27;;
12776;SDS011;6452;41.572;23.732;2022-12-07T07:38:11;33.72;;;24.00;;
12776;SDS011;6452;41.572;23.732;2022-12-07T07:40:37;34.78;;;24.38;;
12776;SDS011;6452;41.572;23.732;2022-12-07T07:43:04;37.35;;;24.83;;
12776;SDS011;6452;41.572;23.732;2022-12-07T07:45:31;35.67;;;24.55;;
12776;SDS011;6452;41.572;23.732;2022-12-07T07:47:58;40.15;;;24.90;;
12776;SDS011;6452;41.572;23.732;2022-12-07T07:50:24;35.25;;;25.40;;
12776;SDS011;6452;41.572;23.732;2022-12-07T07:52:51;32.78;;;24.73;;
12776;SDS011;6452;41.572;23.732;2022-12-07T07:55:17;34.03;;;23.65;;
12776;SDS011;6452;41.572;23.732;2022-12-07T07:57:48;33.70;;;24.05;;
12776;SDS011;6452;41.572;23.732;2022-12-07T08:00:15;36.10;;;25.08;;
12776;SDS011;6452;41.572;23.732;2022-12-07T08:02:44;41.60;;;27.35;;
12776;SDS011;6452;41.572;23.732;2022-12-07T08:05:11;37.30;;;26.17;;
12776;SDS011;6452;41.572;23.732;2022-12-07T08:07:38;32.38;;;22.88;;
12776;SDS011;6452;41.572;23.732;2022-12-07T08:10:05;34.60;;;24.25;;
12776;SDS011;6452;41.572;23.732;2022-12-07T08:12:35;31.77;;;23.15;;
12776;SDS011;6452;41.572;23.732;2022-12-07T08:15:25;30.52;;;20.75;;
12776;SDS011;6452;41.572;23.732;2022-12-07T08:17:52;29.60;;;20.27;;
12776;SDS011;6452;41.572;23.732;2022-12-07T08:20:19;25.88;;;18.60;;
12776;SDS011;6452;41.572;23.732;2022-12-07T08:22:45;27.10;;;20.45;;
12776;SDS011;6452;41.572;23.732;2022-12-07T08:25:11;28.98;;;21.05;;
12776;SDS011;6452;41.572;23.732;2022-12-07T08:27:42;30.15;;;21.80;;
12776;SDS011;6452;41.572;23.732;2022-12-07T08:30:09;30.33;;;22.17;;
12776;SDS011;6452;41.572;23.732;2022-12-07T08:32:36;30.42;;;23.20;;
12776;SDS011;6452;41.572;23.732;2022-12-07T08:35:03;32.78;;;22.60;;
12776;SDS011;6452;41.572;23.732;2022-12-07T08:37:31;28.77;;;22.23;;
12776;SDS011;6452;41.572;23.732;2022-12-07T08:39:58;29.58;;;21.35;;
12776;SDS011;6452;41.572;23.732;2022-12-07T08:42:25;32.13;;;21.02;;
12776;SDS011;6452;41.572;23.732;2022-12-07T08:44:56;28.63;;;20.77;;
12776;SDS011;6452;41.572;23.732;2022-12-07T08:47:23;27.92;;;21.70;;
12776;SDS011;6452;41.572;23.732;2022-12-07T08:49:51;28.63;;;21.95;;
12776;SDS011;6452;41.572;23.732;2022-12-07T08:52:18;39.88;;;26.33;;
12776;SDS011;6452;41.572;23.732;2022-12-07T08:54:46;31.77;;;23.67;;
12776;SDS011;6452;41.572;23.732;2022-12-07T08:57:12;25.00;;;20.27;;
12776;SDS011;6452;41.572;23.732;2022-12-07T08:59:40;32.67;;;23.05;;
12776;SDS011;6452;41.572;23.732;2022-12-07T09:02:10;29.80;;;23.50;;
12776;SDS011;6452;41.572;23.732;2022-12-07T09:04:37;29.60;;;21.40;;
12776;SDS011;6452;41.572;23.732;2022-12-07T09:07:04;26.70;;;19.92;;
12776;SDS011;6452;41.572;23.732;2022-12-07T09:09:31;30.33;;;21.15;;
12776;SDS011;6452;41.572;23.732;2022-12-07T09:11:58;29.30;;;21.90;;
12776;SDS011;6452;41.572;23.732;2022-12-07T09:14:24;29.67;;;20.88;;
12776;SDS011;6452;41.572;23.732;2022-12-07T09:16:51;30.05;;;21.27;;
12776;SDS011;6452;41.572;23.732;2022-12-07T09:19:21;25.52;;;21.52;;
12776;SDS011;6452;41.572;23.732;2022-12-07T09:21:48;31.52;;;22.38;;
12776;SDS011;6452;41.572;23.732;2022-12-07T09:24:14;37.65;;;24.42;;
12776;SDS011;6452;41.572;23.732;2022-12-07T09:26:41;34.65;;;24.90;;
12776;SDS011;6452;41.572;23.732;2022-12-07T09:29:12;38.88;;;25.23;;
12776;SDS011;6452;41.572;23.732;2022-12-07T09:31:38;41.08;;;26.27;;
12776;SDS011;6452;41.572;23.732;2022-12-07T09:34:06;34.90;;;24.85;;
12776;SDS011;6452;41.572;23.732;2022-12-07T09:36:32;31.83;;;21.80;;
12776;SDS011;6452;41.572;23.732;2022-12-07T09:39:00;30.52;;;20.70;;
12776;SDS011;6452;41.572;23.732;2022-12-07T09:41:29;32.30;;;21.77;;
12776;SDS011;6452;41.572;23.732;2022-12-07T09:44:30;30.48;;;22.80;;
12776;SDS011;6452;41.572;23.732;2022-12-07T09:46:50;27.27;;;21.33;;
12776;SDS011;6452;41.572;23.732;2022-12-07T09:49:19;30.45;;;21.63;;
12776;SDS011;6452;41.572;23.732;2022-12-07T09:51:47;28.73;;;21.02;;
12776;SDS011;6452;41.572;23.732;2022-12-07T09:54:24;34.50;;;23.85;;
12776;SDS011;6452;41.572;23.732;2022-12-07T09:56:51;28.75;;;19.75;;
12776;SDS011;6452;41.572;23.732;2022-12-07T09:59:17;40.10;;;20.20;;
12776;SDS011;6452;41.572;23.732;2022-12-07T10:01:45;34.67;;;22.00;;
12776;SDS011;6452;41.572;23.732;2022-12-07T10:04:16;25.17;;;18.35;;
12776;SDS011;6452;41.572;23.732;2022-12-07T10:06:49;37.47;;;21.67;;
12776;SDS011;6452;41.572;23.732;2022-12-07T10:09:19;36.78;;;19.80;;
12776;SDS011;6452;41.572;23.732;2022-12-07T10:12:01;28.50;;;19.58;;
12776;SDS011;6452;41.572;23.732;2022-12-07T10:14:36;22.77;;;15.45;;
12776;SDS011;6452;41.572;23.732;2022-12-07T10:17:25;25.10;;;17.48;;
12776;SDS011;6452;41.572;23.732;2022-12-07T10:19:52;31.92;;;19.85;;
12776;SDS011;6452;41.572;23.732;2022-12-07T10:22:33;22.15;;;16.52;;
12776;SDS011;6452;41.572;23.732;2022-12-07T10:25:07;21.13;;;17.13;;
12776;SDS011;6452;41.572;23.732;2022-12-07T10:27:35;23.98;;;18.02;;
12776;SDS011;6452;41.572;23.732;2022-12-07T10:30:01;28.63;;;17.95;;
12776;SDS011;6452;41.572;23.732;2022-12-07T10:32:33;20.98;;;16.55;;
12776;SDS011;6452;41.572;23.732;2022-12-07T10:37:46;30.58;;;19.90;;
12776;SDS011;6452;41.572;23.732;2022-12-07T10:40:32;26.75;;;20.05;;
12776;SDS011;6452;41.572;23.732;2022-12-07T10:43:00;30.50;;;21.88;;
12776;SDS011;6452;41.572;23.732;2022-12-07T10:46:04;27.95;;;21.92;;
12776;SDS011;6452;41.572;23.732;2022-12-07T10:51:23;39.80;;;25.67;;
12776;SDS011;6452;41.572;23.732;2022-12-07T10:54:10;38.70;;;27.33;;
12776;SDS011;6452;41.572;23.732;2022-12-07T10:59:47;36.28;;;25.52;;
12776;SDS011;6452;41.572;23.732;2022-12-07T11:08:03;38.63;;;25.38;;
12776;SDS011;6452;41.572;23.732;2022-12-07T11:10:48;32.38;;;23.55;;
12776;SDS011;6452;41.572;23.732;2022-12-07T11:16:02;26.17;;;20.52;;
12776;SDS011;6452;41.572;23.732;2022-12-07T11:18:35;30.10;;;22.40;;
12776;SDS011;6452;41.572;23.732;2022-12-07T11:24:19;31.92;;;19.50;;
12776;SDS011;6452;41.572;23.732;2022-12-07T11:29:59;25.52;;;20.50;;
12776;SDS011;6452;41.572;23.732;2022-12-07T11:32:49;31.15;;;20.30;;
12776;SDS011;6452;41.572;23.732;2022-12-07T11:35:36;17.35;;;13.70;;
12776;SDS011;6452;41.572;23.732;2022-12-07T11:38:11;20.52;;;14.95;;
12776;SDS011;6452;41.572;23.732;2022-12-07T11:40:40;25.33;;;15.35;;
12776;SDS011;6452;41.572;23.732;2022-12-07T11:43:24;20.17;;;16.00;;
12776;SDS011;6452;41.572;23.732;2022-12-07T11:46:14;20.25;;;15.80;;
12776;SDS011;6452;41.572;23.732;2022-12-07T11:48:50;20.70;;;17.27;;
12776;SDS011;6452;41.572;23.732;2022-12-07T11:51:28;25.95;;;17.40;;
12776;SDS011;6452;41.572;23.732;2022-12-07T11:53:59;23.17;;;17.10;;
12776;SDS011;6452;41.572;23.732;2022-12-07T11:56:29;23.33;;;16.08;;
12776;SDS011;6452;41.572;23.732;2022-12-07T11:59:23;21.50;;;15.55;;
12776;SDS011;6452;41.572;23.732;2022-12-07T12:02:00;17.75;;;13.25;;
12776;SDS011;6452;41.572;23.732;2022-12-07T12:04:51;18.27;;;13.02;;
12776;SDS011;6452;41.572;23.732;2022-12-07T12:07:48;19.02;;;14.15;;
12776;SDS011;6452;41.572;23.732;2022-12-07T12:10:42;22.92;;;15.80;;
12776;SDS011;6452;41.572;23.732;2022-12-07T12:21:10;28.90;;;18.38;;
12776;SDS011;6452;41.572;23.732;2022-12-07T12:26:24;20.63;;;16.80;;
12776;SDS011;6452;41.572;23.732;2022-12-07T12:33:54;24.92;;;19.35;;
12776;SDS011;6452;41.572;23.732;2022-12-07T12:47:01;26.35;;;16.02;;
12776;SDS011;6452;41.572;23.732;2022-12-07T12:51:54;19.35;;;15.07;;
12776;SDS011;6452;41.572;23.732;2022-12-07T12:54:29;18.52;;;14.55;;
12776;SDS011;6452;41.572;23.732;2022-12-07T13:02:38;23.20;;;14.27;;
12776;SDS011;6452;41.572;23.732;2022-12-07T13:26:17;17.90;;;13.40;;
12776;SDS011;6452;41.572;23.732;2022-12-07T13:31:33;21.65;;;15.82;;
12776;SDS011;6452;41.572;23.732;2022-12-07T13:34:01;22.08;;;16.80;;
12776;SDS011;6452;41.572;23.732;2022-12-07T13:36:32;25.58;;;15.73;;
12776;SDS011;6452;41.572;23.732;2022-12-07T13:41:49;27.40;;;15.88;;
12776;SDS011;6452;41.572;23.732;2022-12-07T13:44:39;24.65;;;13.52;;
12776;SDS011;6452;41.572;23.732;2022-12-07T13:47:11;19.25;;;13.35;;
12776;SDS011;6452;41.572;23.732;2022-12-07T13:49:50;16.00;;;12.93;;
12776;SDS011;6452;41.572;23.732;2022-12-07T13:52:28;15.77;;;12.68;;
12776;SDS011;6452;41.572;23.732;2022-12-07T13:55:15;21.15;;;11.68;;
12776;SDS011;6452;41.572;23.732;2022-12-07T13:57:44;16.70;;;12.30;;
12776;SDS011;6452;41.572;23.732;2022-12-07T14:00:16;18.23;;;13.07;;
12776;SDS011;6452;41.572;23.732;2022-12-07T14:02:56;21.77;;;15.07;;
12776;SDS011;6452;41.572;23.732;2022-12-07T14:12:58;18.48;;;14.07;;
12776;SDS011;6452;41.572;23.732;2022-12-07T14:15:31;26.50;;;15.50;;
12776;SDS011;6452;41.572;23.732;2022-12-07T14:18:02;21.10;;;13.85;;
12776;SDS011;6452;41.572;23.732;2022-12-07T14:22:56;22.17;;;15.10;;
12776;SDS011;6452;41.572;23.732;2022-12-07T14:25:23;35.45;;;15.63;;
12776;SDS011;6452;41.572;23.732;2022-12-07T14:27:54;34.42;;;23.45;;
12776;SDS011;6452;41.572;23.732;2022-12-07T14:30:23;23.35;;;16.17;;
12776;SDS011;6452;41.572;23.732;2022-12-07T14:32:54;28.95;;;20.02;;
12776;SDS011;6452;41.572;23.732;2022-12-07T14:35:23;28.13;;;21.50;;
12776;SDS011;6452;41.572;23.732;2022-12-07T14:37:49;24.88;;;18.25;;
12776;SDS011;6452;41.572;23.732;2022-12-07T14:40:20;31.20;;;22.85;;
12776;SDS011;6452;41.572;23.732;2022-12-07T14:42:50;37.70;;;26.20;;
12776;SDS011;6452;41.572;23.732;2022-12-07T14:45:21;34.35;;;25.30;;
12776;SDS011;6452;41.572;23.732;2022-12-07T14:47:48;41.03;;;25.85;;
12776;SDS011;6452;41.572;23.732;2022-12-07T14:50:19;32.83;;;23.58;;
12776;SDS011;6452;41.572;23.732;2022-12-07T14:52:48;40.95;;;25.33;;
12776;SDS011;6452;41.572;23.732;2022-12-07T14:55:28;37.38;;;24.02;;
12776;SDS011;6452;41.572;23.732;2022-12-07T14:57:57;34.97;;;22.08;;
12776;SDS011;6452;41.572;23.732;2022-12-07T15:00:27;31.55;;;23.65;;
12776;SDS011;6452;41.572;23.732;2022-12-07T15:02:55;43.65;;;28.35;;
12776;SDS011;6452;41.572;23.732;2022-12-07T15:05:22;33.88;;;22.33;;
12776;SDS011;6452;41.572;23.732;2022-12-07T15:07:50;43.53;;;22.90;;
12776;SDS011;6452;41.572;23.732;2022-12-07T15:10:17;51.58;;;34.05;;
12776;SDS011;6452;41.572;23.732;2022-12-07T15:12:45;53.90;;;32.25;;
12776;SDS011;6452;41.572;23.732;2022-12-07T15:15:12;50.70;;;31.55;;
12776;SDS011;6452;41.572;23.732;2022-12-07T15:17:39;45.28;;;28.58;;
12776;SDS011;6452;41.572;23.732;2022-12-07T15:20:07;49.83;;;29.10;;
12776;SDS011;6452;41.572;23.732;2022-12-07T15:22:42;278.58;;;151.40;;
12776;SDS011;6452;41.572;23.732;2022-12-07T15:25:08;614.20;;;348.58;;
12776;SDS011;6452;41.572;23.732;2022-12-07T15:27:38;593.60;;;338.30;;
12776;SDS011;6452;41.572;23.732;2022-12-07T15:30:05;711.50;;;410.20;;
12776;SDS011;6452;41.572;23.732;2022-12-07T15:32:33;534.97;;;300.08;;
12776;SDS011;6452;41.572;23.732;2022-12-07T15:34:59;224.30;;;119.18;;
12776;SDS011;6452;41.572;23.732;2022-12-07T15:37:26;154.10;;;83.13;;
12776;SDS011;6452;41.572;23.732;2022-12-07T15:39:53;124.63;;;70.75;;
12776;SDS011;6452;41.572;23.732;2022-12-07T15:42:20;161.30;;;100.88;;
12776;SDS011;6452;41.572;23.732;2022-12-07T15:44:46;156.52;;;105.55;;
12776;SDS011;6452;41.572;23.732;2022-12-07T15:47:33;142.98;;;94.45;;
12776;SDS011;6452;41.572;23.732;2022-12-07T15:50:02;145.93;;;99.78;;
12776;SDS011;6452;41.572;23.732;2022-12-07T15:52:48;158.25;;;103.50;;
12776;SDS011;6452;41.572;23.732;2022-12-07T15:55:18;111.93;;;74.20;;
12776;SDS011;6452;41.572;23.732;2022-12-07T15:57:49;135.07;;;83.30;;
12776;SDS011;6452;41.572;23.732;2022-12-07T16:00:16;208.32;;;118.80;;
12776;SDS011;6452;41.572;23.732;2022-12-07T16:02:45;175.60;;;107.68;;
12776;SDS011;6452;41.572;23.732;2022-12-07T16:05:12;128.02;;;75.15;;
12776;SDS011;6452;41.572;23.732;2022-12-07T16:07:39;91.40;;;58.67;;
12776;SDS011;6452;41.572;23.732;2022-12-07T16:10:12;92.28;;;58.38;;
12776;SDS011;6452;41.572;23.732;2022-12-07T16:12:38;106.35;;;68.72;;
12776;SDS011;6452;41.572;23.732;2022-12-07T16:15:05;108.28;;;66.70;;
12776;SDS011;6452;41.572;23.732;2022-12-07T16:17:33;108.85;;;69.68;;
12776;SDS011;6452;41.572;23.732;2022-12-07T16:19:59;130.13;;;84.72;;
12776;SDS011;6452;41.572;23.732;2022-12-07T16:22:29;129.55;;;84.65;;
12776;SDS011;6452;41.572;23.732;2022-12-07T16:24:56;144.10;;;93.97;;
12776;SDS011;6452;41.572;23.732;2022-12-07T16:27:23;138.32;;;95.45;;
12776;SDS011;6452;41.572;23.732;2022-12-07T16:29:50;123.38;;;84.07;;
12776;SDS011;6452;41.572;23.732;2022-12-07T16:32:17;130.82;;;92.32;;
12776;SDS011;6452;41.572;23.732;2022-12-07T16:34:44;132.80;;;89.63;;
12776;SDS011;6452;41.572;23.732;2022-12-07T16:37:11;112.25;;;77.13;;
12776;SDS011;6452;41.572;23.732;2022-12-07T16:39:37;87.15;;;56.65;;
12776;SDS011;6452;41.572;23.732;2022-12-07T16:42:04;83.20;;;57.03;;
12776;SDS011;6452;41.572;23.732;2022-12-07T16:44:35;94.95;;;62.33;;
12776;SDS011;6452;41.572;23.732;2022-12-07T16:47:02;94.78;;;60.75;;
12776;SDS011;6452;41.572;23.732;2022-12-07T16:49:29;91.40;;;60.03;;
12776;SDS011;6452;41.572;23.732;2022-12-07T16:51:59;90.50;;;60.92;;
12776;SDS011;6452;41.572;23.732;2022-12-07T16:54:30;88.60;;;60.92;;
12776;SDS011;6452;41.572;23.732;2022-12-07T16:57:01;69.93;;;48.97;;